ADDS METAR Data INFO
IDs: Format: Raw Decoded Include TAF

Data at: 0348 UTC 18 Oct 2017

KJAU 180335Z AUTO 00000KT 10SM CLR 06/06 A3034 RMK A01
KJAU 180315Z AUTO 00000KT 10SM CLR 07/06 A3034 RMK A01
KJAU 180255Z AUTO 00000KT 10SM CLR 07/07 A3034 RMK A01
KJAU 180235Z AUTO 00000KT 10SM CLR 07/07 A3034 RMK A01
KJAU 180215Z AUTO 00000KT 10SM CLR 07/07 A3034 RMK A01
KJAU 180155Z AUTO 00000KT 10SM CLR 08/07 A3034 RMK A01
KJAU 180135Z AUTO 00000KT 10SM CLR 08/07 A3034 RMK A01
KJAU 180115Z AUTO 00000KT 10SM CLR 09/08 A3033 RMK A01
KJAU 180055Z AUTO 00000KT 10SM CLR 09/08 A3033 RMK A01
KJAU 180035Z AUTO 00000KT 10SM CLR 09/08 A3032 RMK A01
KJAU 180015Z AUTO 00000KT 10SM CLR 10/08 A3032 RMK A01
KJAU 172355Z AUTO 00000KT 10SM CLR 10/08 A3032 RMK A01
KJAU 172335Z AUTO 00000KT 10SM CLR 11/08 A3031 RMK A01
KJAU 172315Z AUTO 00000KT 10SM CLR 12/08 A3031 RMK A01
KJAU 172255Z AUTO 00000KT 10SM CLR 14/07 A3030 RMK A01
KJAU 172235Z AUTO 00000KT 10SM CLR 15/06 A3030 RMK A01
KJAU 172215Z AUTO 00000KT 10SM CLR 17/05 A3030 RMK A01
KJAU 172155Z AUTO 00000KT 10SM CLR 18/05 A3030 RMK A01
KJAU 172135Z AUTO 14003KT 10SM CLR 18/04 A3030 RMK A01
KJAU 172115Z AUTO 00000KT 10SM CLR 18/04 A3030 RMK A01
KJAU 172055Z AUTO 14003KT 10SM CLR 18/04 A3031 RMK A01
KJAU 172035Z AUTO 00000KT 10SM CLR 19/04 A3031 RMK A01
KJAU 172015Z AUTO 20004KT 10SM CLR 18/04 A3032 RMK A01
KJAU 171955Z AUTO 00000KT 10SM CLR 18/04 A3032 RMK A01
KJAU 171935Z AUTO 24004KT 10SM CLR 18/05 A3032 RMK A01
KJAU 171915Z AUTO 00000KT 10SM CLR 18/05 A3033 RMK A01
KJAU 171855Z AUTO 00000KT 10SM CLR 17/05 A3033 RMK A01
KJAU 171835Z AUTO 19005KT 10SM CLR 17/05 A3034 RMK A01
KJAU 171815Z AUTO 00000KT 10SM CLR 17/04 A3035 RMK A01
KJAU 171755Z AUTO 00000KT 10SM CLR 17/05 A3036 RMK A01
KJAU 171735Z AUTO 00000KT 10SM CLR 16/05 A3038 RMK A01
KJAU 171715Z AUTO VRB03KT 10SM CLR 16/04 A3039 RMK A01
KJAU 171655Z AUTO VRB04KT 10SM CLR 16/04 A3040 RMK A01
KJAU 171635Z AUTO 00000KT 10SM CLR 15/03 A3041 RMK A01
KJAU 171615Z AUTO 00000KT 10SM CLR 15/04 A3042 RMK A01
KJAU 171555Z AUTO VRB06KT 020V080 10SM CLR 14/05 A3042 RMK A01
KJAU 171535Z AUTO 00000KT 10SM CLR 14/05 A3043 RMK A01
KJAU 171515Z AUTO 05004KT 10SM CLR 13/06 A3043 RMK A01
KJAU 171455Z AUTO 00000KT 10SM CLR 12/06 A3044 RMK A01
KJAU 171435Z AUTO 00000KT 10SM CLR 11/07 A3043 RMK A01
KJAU 171415Z AUTO 00000KT 10SM CLR 09/07 A3043 RMK A01
KJAU 171355Z AUTO 00000KT 10SM CLR 08/07 A3043 RMK A01
KJAU 171335Z AUTO 00000KT 10SM SCT002 07/07 A3043 RMK A01
KJAU 171315Z AUTO 00000KT 3/4SM BR OVC002 05/05 A3043 RMK A01
KJAU 171255Z AUTO 00000KT M1/4SM FG OVC002 04/04 A3041 RMK A01
KJAU 171235Z AUTO 00000KT M1/4SM FG OVC002 04/04 A3041 RMK A01
KJAU 171215Z AUTO 00000KT M1/4SM FG OVC002 03/03 A3040 RMK A01
KJAU 171155Z AUTO 00000KT OVC002 03/03 A3039 RMK A01
KJAU 171135Z AUTO 00000KT 1 3/4SM BR OVC002 03/03 A3039 RMK A01 VIS 1/2V5
KJAU 171115Z AUTO 00000KT 3/4SM BR BKN002 03/03 A3039 RMK A01
KJAU 171055Z AUTO 00000KT 1/4SM FG BKN002 03/03 A3038 RMK A01
KJAU 171035Z AUTO 00000KT 1/4SM FG OVC002 04/03 A3038 RMK A01
KJAU 171015Z AUTO 00000KT 9SM CLR 03/03 A3038 RMK A01
KJAU 170955Z AUTO 00000KT 9SM SCT002 03/03 A3037 RMK A01
KJAU 170935Z AUTO 00000KT 10SM BKN002 03/03 A3037 RMK A01
KJAU 170915Z AUTO 00000KT 9SM CLR 04/03 A3036 RMK A01
KJAU 170855Z AUTO 00000KT 8SM FEW003 04/04 A3036 RMK A01
KJAU 170835Z AUTO 00000KT 4SM BR SCT003 04/04 A3035 RMK A01
KJAU 170815Z AUTO 00000KT 10SM SCT002 04/04 A3035 RMK A01
KJAU 170755Z AUTO 00000KT 10SM SCT002 04/04 A3035 RMK A01
KJAU 170735Z AUTO 00000KT 10SM CLR 04/04 A3035 RMK A01
KJAU 170715Z AUTO 00000KT 10SM CLR 04/04 A3035 RMK A01
KJAU 170655Z AUTO 00000KT 10SM CLR 05/04 A3036 RMK A01
KJAU 170635Z AUTO 00000KT 10SM CLR 05/05 A3035 RMK A01
KJAU 170615Z AUTO 00000KT 10SM CLR 05/05 A3035 RMK A01
KJAU 170530Z AUTO 00000KT 10SM CLR 05/05 A3035 RMK A01
KJAU 170515Z AUTO 00000KT 10SM CLR 06/05 A3035 RMK A01
KJAU 170455Z AUTO 00000KT 10SM CLR 06/05 A3035 RMK A01
KJAU 170435Z AUTO 00000KT 10SM CLR 06/05 A3035 RMK A01
KJAU 170415Z AUTO 00000KT 10SM CLR 06/06 A3035 RMK A01
KJAU 170355Z AUTO 00000KT 10SM CLR 06/06 A3035 RMK A01
KJAU 170335Z AUTO 00000KT 10SM CLR 06/06 A3036 RMK A01
KJAU 170315Z AUTO 00000KT 10SM CLR 07/06 A3036 RMK A01
KJAU 170255Z AUTO 00000KT 10SM CLR 07/06 A3035 RMK A01
KJAU 170235Z AUTO 00000KT 10SM CLR 07/06 A3035 RMK A01
KJAU 170215Z AUTO 00000KT 10SM CLR 07/06 A3034 RMK A01
KJAU 170155Z AUTO 00000KT 10SM CLR 08/07 A3034 RMK A01
KJAU 170135Z AUTO 00000KT 10SM CLR 08/07 A3033 RMK A01
KJAU 170115Z AUTO 00000KT 10SM CLR 08/06 A3033 RMK A01
KJAU 170055Z AUTO 00000KT 10SM CLR 09/06 A3032 RMK A01
KJAU 170035Z AUTO 00000KT 10SM CLR 09/06 A3032 RMK A01
KJAU 170015Z AUTO 00000KT 10SM CLR 10/06 A3031 RMK A01
KJAU 162355Z AUTO 00000KT 10SM CLR 12/05 A3031 RMK A01
KJAU 162335Z AUTO VRB04KT 10SM CLR 13/04 A3030 RMK A01
KJAU 162315Z AUTO VRB05KT 10SM CLR 13/04 A3029 RMK A01
KJAU 162255Z AUTO 00000KT 10SM CLR 14/04 A3029 RMK A01
KJAU 162235Z AUTO VRB05KT 10SM CLR 14/04 A3028 RMK A01
KJAU 162215Z AUTO 04004KT 10SM CLR 15/05 A3028 RMK A01
KJAU 162155Z AUTO 35007G12KT 320V020 10SM CLR 15/04 A3027 RMK A01
KJAU 162135Z AUTO VRB06KT 10SM CLR 16/04 A3027 RMK A01
KJAU 162115Z AUTO 03009G15KT 10SM CLR 16/04 A3027 RMK A01
KJAU 162055Z AUTO VRB06KT 10SM CLR 16/04 A3027 RMK A01
KJAU 162035Z AUTO 03009KT 10SM CLR 16/04 A3027 RMK A01
KJAU 162015Z AUTO 02009KT 10SM FEW050 16/04 A3027 RMK A01
KJAU 161955Z AUTO 03010G20KT 10SM SCT049 16/04 A3028 RMK A01
KJAU 161935Z AUTO 04010KT 10SM SCT049 17/05 A3028 RMK A01
KJAU 161915Z AUTO 02007G13KT 340V060 10SM FEW047 16/05 A3029 RMK A01
KJAU 161855Z AUTO 02008KT 10SM FEW047 16/05 A3029 RMK A01
KJAU 161835Z AUTO 01008G14KT 340V040 10SM SCT046 15/05 A3029 RMK A01
KJAU 161815Z AUTO 02008KT 10SM SCT046 16/05 A3030 RMK A01
KJAU 161755Z AUTO 02009G19KT 320V060 10SM FEW044 16/05 A3030 RMK A01
KJAU 161735Z AUTO 02008G16KT 10SM BKN042 15/06 A3031 RMK A01
KJAU 161715Z AUTO 06009G14KT 10SM BKN039 BKN045 15/06 A3031 RMK A01
KJAU 161655Z AUTO 03009KT 10SM BKN036 14/06 A3032 RMK A01
KJAU 161635Z AUTO 04008G16KT 10SM BKN037 14/06 A3032 RMK A01
KJAU 161615Z AUTO VRB04G11KT 10SM SCT034 SCT041 14/06 A3032 RMK A01
KJAU 161555Z AUTO 03008G14KT 360V060 10SM OVC034 13/06 A3032 RMK A01